VIR264 EGCC-MMMX
Flight info
| Callsign | VIR264 |
|---|---|
| Flight time | N/A |
| Altitude | 34000 |
| Route | ASMIM L975 WAL L10 PENIL M144 BAGSO DCT DOGAL/M085F350 NATD NEEKO/N0494F360 N622E TAFFY DCT CABCI DCT CFB DCT PSB Q71 PSYKO/N0482F380 Q71 GEFFS DCT HVQ DCT VLKNN DCT KEENY DCT TBD M345 AXEXO UM345 PAZ UT154 ENAGA ENAGA3A |
| Aircraft | A35K/H-SDE2E3GHIJ3J4J5LM1ORWXY/LB1D1 |
Departure
| Time | N/A |
|---|---|
| Airport | Manchester Airport (EGCC) |
Arrival
| Time | 2026-05-05 20:51 |
|---|---|
| Airport | Mexico City Benito Juárez International Airport (MMMX) |
| Time | Latitude | Longitude | Altitude | Speed | Heading |
|---|---|---|---|---|---|
| 2026-05-05 20:15 | 21.19168 | -97.10825 | 37819 ft | 475 kts | 210° |
| 2026-05-05 20:15 | 21.13394 | -97.14227 | 37816 ft | 475 kts | 210° |
| 2026-05-05 20:16 | 21.07602 | -97.17635 | 37813 ft | 475 kts | 209° |
| 2026-05-05 20:16 | 21.01821 | -97.21034 | 37813 ft | 475 kts | 209° |
| 2026-05-05 20:17 | 20.96005 | -97.24451 | 37805 ft | 476 kts | 209° |
| 2026-05-05 20:17 | 20.90232 | -97.27840 | 37807 ft | 476 kts | 209° |
| 2026-05-05 20:18 | 20.84410 | -97.31254 | 37808 ft | 476 kts | 209° |
| 2026-05-05 20:18 | 20.78825 | -97.34526 | 37809 ft | 476 kts | 209° |
| 2026-05-05 20:19 | 20.73031 | -97.37918 | 37812 ft | 476 kts | 209° |
| 2026-05-05 20:19 | 20.67224 | -97.41314 | 37812 ft | 476 kts | 209° |
| 2026-05-05 20:20 | 20.65471 | -97.42339 | 37811 ft | 476 kts | 209° |
| 2026-05-05 20:20 | 20.62975 | -97.43841 | 37806 ft | 476 kts | 212° |
| 2026-05-05 20:21 | 20.57874 | -97.48339 | 37810 ft | 477 kts | 227° |
| 2026-05-05 20:21 | 20.53484 | -97.53680 | 37800 ft | 478 kts | 229° |
| 2026-05-05 20:22 | 20.49224 | -97.59121 | 37797 ft | 479 kts | 230° |
| 2026-05-05 20:22 | 20.44958 | -97.64563 | 37791 ft | 479 kts | 230° |
| 2026-05-05 20:23 | 20.40636 | -97.70031 | 37572 ft | 478 kts | 229° |
| 2026-05-05 20:23 | 20.38513 | -97.72707 | 37323 ft | 476 kts | 229° |
| 2026-05-05 20:23 | 20.36368 | -97.75408 | 37073 ft | 476 kts | 229° |
| 2026-05-05 20:23 | 20.34235 | -97.78091 | 36820 ft | 477 kts | 229° |
| 2026-05-05 20:24 | 20.32080 | -97.80801 | 36557 ft | 477 kts | 229° |
| 2026-05-05 20:24 | 20.29942 | -97.83488 | 36322 ft | 478 kts | 229° |
| 2026-05-05 20:24 | 20.27781 | -97.86204 | 36081 ft | 479 kts | 229° |
| 2026-05-05 20:24 | 20.25649 | -97.88882 | 35666 ft | 476 kts | 229° |
| 2026-05-05 20:25 | 20.23508 | -97.91570 | 35054 ft | 474 kts | 229° |
| 2026-05-05 20:25 | 20.21370 | -97.94254 | 34472 ft | 471 kts | 229° |
| 2026-05-05 20:25 | 20.19259 | -97.96904 | 33994 ft | 467 kts | 229° |
| 2026-05-05 20:25 | 20.17189 | -97.99499 | 33455 ft | 462 kts | 229° |
| 2026-05-05 20:26 | 20.15108 | -98.02108 | 32972 ft | 457 kts | 229° |
| 2026-05-05 20:26 | 20.13074 | -98.04657 | 32502 ft | 452 kts | 229° |
| 2026-05-05 20:26 | 20.11044 | -98.07204 | 32015 ft | 448 kts | 229° |
| 2026-05-05 20:26 | 20.09043 | -98.09702 | 31538 ft | 443 kts | 229° |
| 2026-05-05 20:27 | 20.07045 | -98.12195 | 31071 ft | 439 kts | 229° |
| 2026-05-05 20:27 | 20.05077 | -98.14651 | 30599 ft | 435 kts | 229° |
| 2026-05-05 20:27 | 20.03280 | -98.17154 | 30152 ft | 431 kts | 236° |
| 2026-05-05 20:27 | 20.01939 | -98.19976 | 29771 ft | 427 kts | 249° |
| 2026-05-05 20:28 | 20.01116 | -98.23062 | 29641 ft | 439 kts | 256° |
| 2026-05-05 20:28 | 20.00464 | -98.26261 | 29462 ft | 443 kts | 257° |
| 2026-05-05 20:28 | 19.99842 | -98.29408 | 29308 ft | 442 kts | 256° |
| 2026-05-05 20:28 | 19.99223 | -98.32512 | 29142 ft | 441 kts | 256° |
| 2026-05-05 20:29 | 19.98588 | -98.35681 | 28968 ft | 440 kts | 256° |
| 2026-05-05 20:29 | 19.97959 | -98.38807 | 28784 ft | 438 kts | 256° |
| 2026-05-05 20:29 | 19.97380 | -98.41675 | 28640 ft | 437 kts | 256° |
| 2026-05-05 20:29 | 19.96766 | -98.44710 | 28477 ft | 437 kts | 256° |
| 2026-05-05 20:30 | 19.96148 | -98.47764 | 28317 ft | 437 kts | 256° |
| 2026-05-05 20:30 | 19.95512 | -98.50902 | 28121 ft | 435 kts | 256° |
| 2026-05-05 20:30 | 19.94931 | -98.53763 | 27966 ft | 435 kts | 256° |
| 2026-05-05 20:30 | 19.94292 | -98.56913 | 27797 ft | 434 kts | 256° |
| 2026-05-05 20:31 | 19.93654 | -98.60052 | 27634 ft | 433 kts | 256° |
| 2026-05-05 20:31 | 19.93024 | -98.63145 | 27466 ft | 433 kts | 257° |
| 2026-05-05 20:31 | 19.92384 | -98.66289 | 27258 ft | 433 kts | 256° |
| 2026-05-05 20:31 | 19.91743 | -98.69437 | 27114 ft | 433 kts | 256° |
| 2026-05-05 20:32 | 19.91112 | -98.72533 | 27010 ft | 433 kts | 257° |
| 2026-05-05 20:32 | 19.90623 | -98.75713 | 26837 ft | 434 kts | 261° |
| 2026-05-05 20:32 | 19.90260 | -98.78865 | 26245 ft | 434 kts | 262° |
| 2026-05-05 20:32 | 19.89913 | -98.82059 | 25705 ft | 432 kts | 262° |
| 2026-05-05 20:33 | 19.89567 | -98.85224 | 25233 ft | 429 kts | 262° |
| 2026-05-05 20:33 | 19.89226 | -98.88337 | 24775 ft | 426 kts | 262° |
| 2026-05-05 20:33 | 19.89117 | -98.91470 | 24301 ft | 423 kts | 271° |
| 2026-05-05 20:33 | 19.89296 | -98.94586 | 23814 ft | 421 kts | 274° |
| 2026-05-05 20:34 | 19.89517 | -98.97684 | 23269 ft | 418 kts | 274° |
| 2026-05-05 20:34 | 19.89734 | -99.00755 | 22760 ft | 414 kts | 274° |
| 2026-05-05 20:34 | 19.89944 | -99.03798 | 22266 ft | 410 kts | 274° |
| 2026-05-05 20:34 | 19.90148 | -99.06787 | 21767 ft | 408 kts | 274° |
| 2026-05-05 20:35 | 19.90352 | -99.09801 | 21262 ft | 406 kts | 274° |
| 2026-05-05 20:35 | 19.90551 | -99.12759 | 20752 ft | 403 kts | 273° |
| 2026-05-05 20:35 | 19.90749 | -99.15727 | 20236 ft | 399 kts | 273° |
| 2026-05-05 20:35 | 19.90943 | -99.18640 | 19737 ft | 396 kts | 273° |
| 2026-05-05 20:36 | 19.91136 | -99.21552 | 19382 ft | 388 kts | 273° |
| 2026-05-05 20:36 | 19.91323 | -99.24377 | 19154 ft | 376 kts | 273° |
| 2026-05-05 20:36 | 19.91502 | -99.27079 | 18930 ft | 365 kts | 273° |
| 2026-05-05 20:36 | 19.91451 | -99.29731 | 18693 ft | 353 kts | 259° |
| 2026-05-05 20:37 | 19.90911 | -99.32242 | 18493 ft | 340 kts | 254° |
| 2026-05-05 20:37 | 19.90317 | -99.34609 | 18280 ft | 331 kts | 254° |
| 2026-05-05 20:37 | 19.89725 | -99.36963 | 17955 ft | 325 kts | 254° |
| 2026-05-05 20:37 | 19.89148 | -99.39279 | 17584 ft | 322 kts | 254° |
| 2026-05-05 20:38 | 19.88593 | -99.41521 | 17446 ft | 312 kts | 253° |
| 2026-05-05 20:38 | 19.88033 | -99.43756 | 17444 ft | 313 kts | 252° |
| 2026-05-05 20:38 | 19.87124 | -99.45851 | 17444 ft | 310 kts | 231° |
| 2026-05-05 20:38 | 19.85738 | -99.47565 | 17448 ft | 309 kts | 225° |
| 2026-05-05 20:39 | 19.84231 | -99.49221 | 17449 ft | 311 kts | 225° |
| 2026-05-05 20:39 | 19.82721 | -99.50875 | 17441 ft | 311 kts | 224° |
| 2026-05-05 20:39 | 19.81233 | -99.52514 | 17467 ft | 311 kts | 224° |
| 2026-05-05 20:39 | 19.79717 | -99.54158 | 17476 ft | 310 kts | 221° |
| 2026-05-05 20:40 | 19.77927 | -99.55432 | 17443 ft | 307 kts | 200° |
| 2026-05-05 20:40 | 19.75888 | -99.55815 | 17241 ft | 300 kts | 174° |
| 2026-05-05 20:40 | 19.73886 | -99.55241 | 17001 ft | 297 kts | 150° |
| 2026-05-05 20:40 | 19.72312 | -99.53875 | 16748 ft | 295 kts | 127° |
| 2026-05-05 20:41 | 19.71396 | -99.51965 | 16499 ft | 294 kts | 104° |
| 2026-05-05 20:41 | 19.71122 | -99.49811 | 16252 ft | 293 kts | 96° |
| 2026-05-05 20:41 | 19.70684 | -99.47692 | 16024 ft | 293 kts | 113° |
| 2026-05-05 20:41 | 19.69734 | -99.45788 | 15779 ft | 291 kts | 122° |
| 2026-05-05 20:42 | 19.68673 | -99.43976 | 15554 ft | 290 kts | 122° |
| 2026-05-05 20:42 | 19.67595 | -99.42161 | 15319 ft | 290 kts | 122° |
| 2026-05-05 20:42 | 19.66526 | -99.40363 | 15082 ft | 289 kts | 122° |
| 2026-05-05 20:42 | 19.65452 | -99.38550 | 14829 ft | 288 kts | 122° |
| 2026-05-05 20:43 | 19.64387 | -99.36756 | 14622 ft | 287 kts | 122° |
| 2026-05-05 20:43 | 19.63350 | -99.35007 | 14525 ft | 275 kts | 122° |
| 2026-05-05 20:43 | 19.62351 | -99.33321 | 14354 ft | 268 kts | 122° |
| 2026-05-05 20:43 | 19.61366 | -99.31660 | 14153 ft | 261 kts | 122° |
| 2026-05-05 20:44 | 19.60408 | -99.30055 | 13973 ft | 259 kts | 123° |
| 2026-05-05 20:44 | 19.59221 | -99.28617 | 13770 ft | 259 kts | 139° |
| 2026-05-05 20:44 | 19.57807 | -99.27448 | 13372 ft | 259 kts | 143° |
| 2026-05-05 20:44 | 19.56349 | -99.26327 | 13050 ft | 257 kts | 143° |
| 2026-05-05 20:45 | 19.53433 | -99.24197 | 12504 ft | 255 kts | 153° |
| 2026-05-05 20:45 | 19.51719 | -99.23787 | 12248 ft | 256 kts | 181° |
| 2026-05-05 20:45 | 19.49949 | -99.24043 | 12006 ft | 256 kts | 190° |
| 2026-05-05 20:46 | 19.48222 | -99.24424 | 11746 ft | 256 kts | 191° |
| 2026-05-05 20:46 | 19.46472 | -99.24814 | 11495 ft | 255 kts | 191° |
| 2026-05-05 20:46 | 19.44783 | -99.25181 | 11243 ft | 243 kts | 190° |
| 2026-05-05 20:46 | 19.43149 | -99.25325 | 10981 ft | 229 kts | 174° |
| 2026-05-05 20:47 | 19.41673 | -99.24835 | 10765 ft | 218 kts | 152° |
| 2026-05-05 20:47 | 19.40365 | -99.24040 | 10520 ft | 214 kts | 148° |
| 2026-05-05 20:47 | 19.39123 | -99.23234 | 10308 ft | 210 kts | 148° |
| 2026-05-05 20:47 | 19.37903 | -99.22409 | 10061 ft | 204 kts | 144° |
| 2026-05-05 20:48 | 19.36998 | -99.21283 | 9812 ft | 201 kts | 112° |
| 2026-05-05 20:48 | 19.36913 | -99.19849 | 9736 ft | 200 kts | 83° |
| 2026-05-05 20:48 | 19.37251 | -99.18441 | 9504 ft | 196 kts | 71° |
| 2026-05-05 20:48 | 19.37888 | -99.17183 | 9365 ft | 191 kts | 59° |
| 2026-05-05 20:49 | 19.38562 | -99.15983 | 9242 ft | 188 kts | 62° |
| 2026-05-05 20:49 | 19.39217 | -99.14795 | 9106 ft | 189 kts | 59° |
| 2026-05-05 20:49 | 19.39903 | -99.13604 | 8857 ft | 187 kts | 58° |
| 2026-05-05 20:49 | 19.40561 | -99.12452 | 8498 ft | 176 kts | 60° |
| 2026-05-05 20:50 | 19.41121 | -99.11364 | 8192 ft | 166 kts | 62° |
| 2026-05-05 20:50 | 19.41706 | -99.10306 | 7875 ft | 166 kts | 56° |
| 2026-05-05 20:50 | 19.42322 | -99.09256 | 7559 ft | 168 kts | 57° |
| 2026-05-05 20:50 | 19.42906 | -99.08211 | 7335 ft | 165 kts | 57° |
| 2026-05-05 20:51 | 19.43381 | -99.07370 | 7310 ft | 80 kts | 59° |
| 2026-05-05 20:51 | 19.43530 | -99.07105 | 7308 ft | 9 kts | 60° |
| 2026-05-05 20:51 | 19.43577 | -99.07030 | 7308 ft | 15 kts | 41° |